Time;durP1;ratioP1;P1;durP2;ratioP2;P2;SDS_P1;SDS_P2;PMS_P1;PMS_P2;Temp;Humidity;BMP_temperature;BMP_pressure;BME280_temperature;BME280_humidity;BME280_pressure;Samples;Min_cycle;Max_cycle;Signal;HPM_P1;HPM_P2
2022/03/29 00:02:14;;;;;;;56.75;37.42;;;;;;;;;;5124728;27;20145;-67
2022/03/29 00:04:39;;;;;;;54.45;36.78;;;;;;;;;;5148627;27;20342;-67
2022/03/29 00:07:05;;;;;;;56.00;38.75;;;;;;;;;;5147638;27;20333;-68
2022/03/29 00:09:30;;;;;;;57.95;38.70;;;;;;;;;;5126779;27;20018;-68
2022/03/29 00:11:56;;;;;;;56.08;38.15;;;;;;;;;;5125843;27;20374;-68
2022/03/29 00:14:21;;;;;;;58.47;38.65;;;;;;;;;;5128007;27;20045;-68
2022/03/29 00:16:48;;;;;;;57.78;38.40;;;;;;;;;;5144167;27;20098;-68
2022/03/29 00:19:14;;;;;;;54.58;37.83;;;;;;;;;;5126619;27;20019;-68
2022/03/29 00:21:39;;;;;;;54.53;37.40;;;;;;;;;;5145981;27;20566;-67
2022/03/29 00:24:05;;;;;;;53.80;37.75;;;;;;;;;;5146849;27;20070;-67
2022/03/29 00:26:30;;;;;;;59.08;38.58;;;;;;;;;;5151079;27;20412;-68
2022/03/29 00:28:55;;;;;;;51.00;36.00;;;;;;;;;;5105665;27;20083;-67
2022/03/29 00:31:21;;;;;;;49.63;35.17;;;;;;;;;;5124320;27;20015;-68
2022/03/29 00:33:47;;;;;;;53.67;37.22;;;;;;;;;;5123803;27;20023;-68
2022/03/29 00:36:12;;;;;;;53.42;36.10;;;;;;;;;;5124702;27;20491;-68
2022/03/29 00:38:38;;;;;;;52.63;34.03;;;;;;;;;;5122419;27;20058;-67
2022/03/29 00:41:03;;;;;;;49.13;34.00;;;;;;;;;;5129128;27;20031;-68
2022/03/29 00:43:28;;;;;;;50.38;35.05;;;;;;;;;;5130202;27;20028;-67
2022/03/29 00:45:54;;;;;;;51.97;34.78;;;;;;;;;;5126819;27;20054;-67
2022/03/29 00:48:19;;;;;;;49.97;35.72;;;;;;;;;;5087282;27;20046;-68
2022/03/29 00:50:45;;;;;;;48.67;34.97;;;;;;;;;;5126194;27;20201;-69
2022/03/29 00:53:11;;;;;;;50.47;35.47;;;;;;;;;;5125872;27;20454;-68
2022/03/29 00:55:38;;;;;;;48.92;34.83;;;;;;;;;;5087972;27;20042;-68
2022/03/29 00:58:04;;;;;;;52.90;34.72;;;;;;;;;;5122347;27;20037;-68
2022/03/29 01:00:30;;;;;;;47.22;33.30;;;;;;;;;;5123628;27;20214;-68
2022/03/29 01:02:56;;;;;;;51.75;33.90;;;;;;;;;;5121277;27;20387;-68
2022/03/29 01:05:21;;;;;;;51.95;33.90;;;;;;;;;;5105129;27;20015;-67
2022/03/29 01:07:46;;;;;;;43.33;30.58;;;;;;;;;;5125390;27;20473;-68
2022/03/29 01:10:12;;;;;;;44.80;32.58;;;;;;;;;;5122729;27;20464;-69
2022/03/29 01:12:38;;;;;;;42.67;30.80;;;;;;;;;;5102653;27;20166;-69
2022/03/29 01:15:07;;;;;;;40.47;28.55;;;;;;;;;;5126580;27;20330;-68
2022/03/29 01:17:38;;;;;;;38.38;28.00;;;;;;;;;;5102126;27;20532;-67
2022/03/29 01:20:07;;;;;;;40.10;27.65;;;;;;;;;;5126156;27;20019;-68
2022/03/29 01:22:32;;;;;;;40.25;27.05;;;;;;;;;;5105576;27;20466;-67
2022/03/29 01:24:58;;;;;;;37.67;27.02;;;;;;;;;;5138352;27;20076;-68
2022/03/29 01:27:24;;;;;;;38.75;28.17;;;;;;;;;;5140597;27;20449;-69
2022/03/29 01:29:50;;;;;;;39.40;27.85;;;;;;;;;;5146588;27;20022;-68
2022/03/29 01:32:16;;;;;;;38.47;27.85;;;;;;;;;;5124599;27;20022;-68
2022/03/29 01:34:43;;;;;;;42.67;28.13;;;;;;;;;;5128384;27;20480;-68
2022/03/29 01:37:08;;;;;;;38.80;27.60;;;;;;;;;;5145193;27;20493;-69
2022/03/29 01:39:34;;;;;;;38.38;27.77;;;;;;;;;;5143351;27;20351;-68
2022/03/29 01:42:00;;;;;;;37.40;27.45;;;;;;;;;;5142703;27;20090;-69
2022/03/29 01:44:25;;;;;;;33.38;26.45;;;;;;;;;;5125406;27;20465;-68
2022/03/29 01:46:51;;;;;;;35.42;26.25;;;;;;;;;;5143721;27;20037;-68
2022/03/29 01:49:17;;;;;;;39.50;28.52;;;;;;;;;;5146763;27;20061;-68
2022/03/29 01:51:43;;;;;;;38.95;28.15;;;;;;;;;;5109473;27;20023;-68
2022/03/29 01:54:08;;;;;;;38.55;28.55;;;;;;;;;;5144649;27;20019;-69
2022/03/29 01:56:34;;;;;;;38.67;28.05;;;;;;;;;;5125293;27;20361;-70
2022/03/29 01:59:03;;;;;;;38.50;27.95;;;;;;;;;;5142817;27;20385;-69
2022/03/29 02:01:29;;;;;;;41.25;26.92;;;;;;;;;;5143609;27;20034;-68
2022/03/29 02:03:55;;;;;;;38.10;27.27;;;;;;;;;;5142370;27;20423;-67
2022/03/29 02:06:20;;;;;;;38.08;26.40;;;;;;;;;;5126655;27;20022;-67
2022/03/29 02:08:46;;;;;;;36.63;26.73;;;;;;;;;;5108732;27;20047;-67
2022/03/29 02:11:11;;;;;;;35.05;26.50;;;;;;;;;;5145680;27;20358;-68
2022/03/29 02:13:38;;;;;;;36.80;26.27;;;;;;;;;;5144532;27;20023;-69
2022/03/29 02:16:04;;;;;;;36.15;24.77;;;;;;;;;;5130609;27;20014;-70
2022/03/29 02:18:29;;;;;;;38.38;26.95;;;;;;;;;;5139058;27;20030;-69
2022/03/29 02:20:55;;;;;;;37.55;26.48;;;;;;;;;;5144764;27;20047;-70
2022/03/29 02:23:21;;;;;;;34.80;26.70;;;;;;;;;;5141811;27;20293;-69
2022/03/29 02:25:47;;;;;;;34.28;25.90;;;;;;;;;;5107541;27;20034;-71
2022/03/29 02:28:12;;;;;;;36.00;26.45;;;;;;;;;;5140948;27;20272;-68
2022/03/29 02:30:38;;;;;;;33.72;24.75;;;;;;;;;;5142818;27;20027;-67
2022/03/29 02:33:04;;;;;;;33.90;25.33;;;;;;;;;;5142659;27;20015;-67
2022/03/29 02:35:29;;;;;;;37.47;25.98;;;;;;;;;;5143506;27;20226;-67
2022/03/29 02:37:55;;;;;;;34.72;25.52;;;;;;;;;;5144069;27;20193;-69
2022/03/29 02:40:22;;;;;;;39.75;27.50;;;;;;;;;;5143261;27;20093;-69
2022/03/29 02:42:48;;;;;;;34.22;24.50;;;;;;;;;;5122525;27;20503;-69
2022/03/29 02:45:18;;;;;;;37.55;26.15;;;;;;;;;;5144713;27;20019;-69
2022/03/29 02:47:43;;;;;;;35.63;25.23;;;;;;;;;;5140220;27;20388;-69
2022/03/29 02:50:09;;;;;;;34.85;26.55;;;;;;;;;;5145207;27;20360;-69
2022/03/29 02:52:41;;;;;;;32.33;24.42;;;;;;;;;;5142623;27;20023;-70
2022/03/29 02:55:06;;;;;;;36.25;26.13;;;;;;;;;;5143444;27;20022;-68
2022/03/29 02:57:32;;;;;;;36.75;25.80;;;;;;;;;;5140502;27;20018;-70
2022/03/29 02:59:57;;;;;;;33.90;25.58;;;;;;;;;;5144358;27;20048;-70
2022/03/29 03:02:23;;;;;;;34.33;25.73;;;;;;;;;;5140665;27;20469;-69
2022/03/29 03:04:49;;;;;;;37.60;25.63;;;;;;;;;;5123744;27;20499;-69
2022/03/29 03:07:14;;;;;;;36.97;26.45;;;;;;;;;;5142171;27;20027;-69
2022/03/29 03:09:39;;;;;;;35.72;26.58;;;;;;;;;;5122762;27;20192;-69
2022/03/29 03:12:05;;;;;;;36.63;25.95;;;;;;;;;;5103768;27;20386;-68
2022/03/29 03:14:30;;;;;;;37.45;26.08;;;;;;;;;;5124198;27;20030;-68
2022/03/29 03:16:56;;;;;;;36.63;26.40;;;;;;;;;;5102904;27;20512;-69
2022/03/29 03:19:21;;;;;;;40.67;26.30;;;;;;;;;;5124139;27;20122;-68
2022/03/29 03:21:47;;;;;;;37.22;26.42;;;;;;;;;;5121490;27;20156;-68
2022/03/29 03:24:13;;;;;;;37.78;27.17;;;;;;;;;;5122436;27;20389;-68
2022/03/29 03:26:38;;;;;;;38.38;27.35;;;;;;;;;;5121881;27;20110;-68
2022/03/29 03:29:04;;;;;;;35.17;27.35;;;;;;;;;;5103341;27;20032;-68
2022/03/29 03:31:29;;;;;;;38.35;27.38;;;;;;;;;;5123411;27;20114;-68
2022/03/29 03:33:54;;;;;;;44.00;28.60;;;;;;;;;;5103101;27;20106;-68
2022/03/29 03:36:19;;;;;;;44.53;28.67;;;;;;;;;;5124181;27;20023;-68
2022/03/29 03:38:44;;;;;;;39.75;28.73;;;;;;;;;;5101617;27;20528;-68
2022/03/29 03:41:10;;;;;;;41.22;29.40;;;;;;;;;;5124222;27;20099;-68
2022/03/29 03:43:35;;;;;;;39.55;27.95;;;;;;;;;;5125214;27;20482;-68
2022/03/29 03:46:00;;;;;;;39.85;28.58;;;;;;;;;;5128639;27;20227;-68
2022/03/29 03:48:26;;;;;;;46.15;30.77;;;;;;;;;;5125837;27;20075;-69
2022/03/29 03:50:52;;;;;;;42.60;30.25;;;;;;;;;;5092162;27;20072;-69
2022/03/29 03:53:17;;;;;;;44.67;30.25;;;;;;;;;;5130852;27;20031;-68
2022/03/29 03:55:42;;;;;;;40.88;28.60;;;;;;;;;;5131403;27;20025;-68
2022/03/29 03:58:07;;;;;;;42.00;28.63;;;;;;;;;;5124149;27;20110;-68
2022/03/29 04:00:33;;;;;;;46.13;30.90;;;;;;;;;;5127274;27;20047;-67
2022/03/29 04:02:59;;;;;;;41.78;30.02;;;;;;;;;;5105438;27;20080;-68
2022/03/29 04:05:26;;;;;;;43.55;29.77;;;;;;;;;;5107933;27;20023;-68
2022/03/29 04:07:51;;;;;;;42.95;29.67;;;;;;;;;;5104726;27;20188;-68
2022/03/29 04:10:17;;;;;;;41.25;29.13;;;;;;;;;;5107467;27;20072;-67
2022/03/29 04:12:42;;;;;;;39.40;28.40;;;;;;;;;;5121626;27;20079;-68
2022/03/29 04:15:08;;;;;;;41.22;29.88;;;;;;;;;;5126576;27;20043;-68
2022/03/29 04:17:34;;;;;;;44.83;29.13;;;;;;;;;;5087879;27;20038;-67
2022/03/29 04:20:01;;;;;;;44.45;29.67;;;;;;;;;;5106907;27;20027;-68
2022/03/29 04:22:26;;;;;;;45.05;30.23;;;;;;;;;;5104831;27;20083;-69
2022/03/29 04:24:51;;;;;;;44.80;30.45;;;;;;;;;;5123786;27;20015;-69
2022/03/29 04:27:17;;;;;;;45.97;30.05;;;;;;;;;;5130740;27;20114;-67
2022/03/29 04:29:42;;;;;;;42.90;30.08;;;;;;;;;;5130660;27;20399;-68
2022/03/29 04:32:08;;;;;;;48.55;31.13;;;;;;;;;;5123372;27;20023;-68
2022/03/29 04:34:34;;;;;;;48.17;30.75;;;;;;;;;;5124973;27;20015;-67
2022/03/29 04:37:00;;;;;;;45.83;29.60;;;;;;;;;;5107442;27;20167;-69
2022/03/29 04:39:25;;;;;;;49.92;30.70;;;;;;;;;;5123519;27;20553;-68
2022/03/29 04:41:52;;;;;;;50.58;32.22;;;;;;;;;;5123186;27;20218;-68
2022/03/29 04:44:17;;;;;;;45.30;30.30;;;;;;;;;;5089681;27;20015;-68
2022/03/29 04:46:44;;;;;;;43.95;30.70;;;;;;;;;;5123421;27;20473;-68
2022/03/29 04:49:10;;;;;;;44.20;29.58;;;;;;;;;;5089817;27;20023;-68
2022/03/29 04:51:35;;;;;;;47.53;30.73;;;;;;;;;;5124330;27;20023;-68
2022/03/29 04:54:01;;;;;;;45.30;28.75;;;;;;;;;;5123172;27;20050;-69
2022/03/29 04:56:27;;;;;;;48.90;31.10;;;;;;;;;;5125759;27;20098;-67
2022/03/29 04:58:52;;;;;;;43.90;29.30;;;;;;;;;;5121081;27;20377;-68
2022/03/29 05:01:17;;;;;;;47.92;30.90;;;;;;;;;;5124769;27;20020;-68
2022/03/29 05:03:43;;;;;;;47.47;30.23;;;;;;;;;;5121266;27;20057;-69
2022/03/29 05:06:08;;;;;;;47.22;29.33;;;;;;;;;;5086994;27;20134;-67
2022/03/29 05:08:34;;;;;;;44.72;29.48;;;;;;;;;;5102456;27;20487;-67
2022/03/29 05:11:00;;;;;;;50.70;31.13;;;;;;;;;;5105159;27;20465;-67
2022/03/29 05:13:26;;;;;;;48.65;30.98;;;;;;;;;;5102316;27;20427;-69
2022/03/29 05:15:51;;;;;;;49.65;31.40;;;;;;;;;;5123453;27;20027;-67
2022/03/29 05:18:16;;;;;;;47.30;30.65;;;;;;;;;;5122354;27;20084;-68
2022/03/29 05:20:41;;;;;;;50.08;31.52;;;;;;;;;;5122218;27;20032;-68
2022/03/29 05:23:07;;;;;;;43.60;30.38;;;;;;;;;;5104843;27;20039;-68
2022/03/29 05:25:32;;;;;;;51.25;31.75;;;;;;;;;;5086876;27;20126;-67
2022/03/29 05:27:58;;;;;;;47.08;31.80;;;;;;;;;;5121425;27;20091;-67
2022/03/29 05:30:24;;;;;;;49.08;31.42;;;;;;;;;;5126141;27;20472;-68
2022/03/29 05:32:57;;;;;;;46.88;30.08;;;;;;;;;;5121344;27;20109;-67
2022/03/29 05:35:25;;;;;;;48.90;30.92;;;;;;;;;;5125888;27;20055;-70
2022/03/29 05:37:51;;;;;;;46.33;29.65;;;;;;;;;;5122781;27;20023;-67
2022/03/29 05:40:16;;;;;;;47.30;31.88;;;;;;;;;;5122776;27;20054;-68
2022/03/29 05:42:42;;;;;;;53.10;33.20;;;;;;;;;;5121217;27;20049;-69
2022/03/29 05:45:09;;;;;;;52.65;34.15;;;;;;;;;;5126209;27;20083;-68
2022/03/29 05:50:18;;;;;;;49.92;32.45;;;;;;;;;;5126226;27;20026;-68
2022/03/29 05:52:43;;;;;;;54.00;33.80;;;;;;;;;;5123303;27;20015;-67
2022/03/29 05:55:08;;;;;;;54.60;33.60;;;;;;;;;;5117534;27;20585;-67
2022/03/29 05:57:34;;;;;;;49.47;32.03;;;;;;;;;;5105127;27;20038;-67
2022/03/29 05:59:59;;;;;;;55.80;34.38;;;;;;;;;;5116403;27;20188;-67
2022/03/29 06:02:24;;;;;;;52.33;33.03;;;;;;;;;;5121322;27;20015;-68
2022/03/29 06:04:50;;;;;;;52.58;34.25;;;;;;;;;;5104361;27;20042;-68
2022/03/29 06:07:15;;;;;;;51.10;33.45;;;;;;;;;;5088038;27;20060;-68
2022/03/29 06:09:41;;;;;;;52.72;33.28;;;;;;;;;;5121217;27;20035;-68
2022/03/29 06:12:06;;;;;;;49.38;30.75;;;;;;;;;;5085818;27;20015;-67
2022/03/29 06:14:32;;;;;;;51.50;32.47;;;;;;;;;;5105404;27;20038;-67
2022/03/29 06:16:57;;;;;;;45.83;30.27;;;;;;;;;;5120937;27;20027;-69
2022/03/29 06:19:23;;;;;;;48.08;31.55;;;;;;;;;;5123222;27;20022;-67
2022/03/29 06:21:48;;;;;;;54.15;33.35;;;;;;;;;;5119925;27;20019;-68
2022/03/29 06:24:14;;;;;;;52.00;32.72;;;;;;;;;;5103641;27;20030;-68
2022/03/29 06:26:40;;;;;;;53.40;33.53;;;;;;;;;;5105130;27;20199;-68
2022/03/29 06:29:06;;;;;;;54.47;33.53;;;;;;;;;;5102363;27;20027;-68
2022/03/29 06:31:31;;;;;;;48.72;32.03;;;;;;;;;;5106581;27;20059;-68
2022/03/29 06:33:57;;;;;;;48.90;32.95;;;;;;;;;;5139386;27;20139;-68
2022/03/29 06:36:22;;;;;;;53.00;32.78;;;;;;;;;;5125603;27;20087;-67
2022/03/29 06:38:47;;;;;;;51.97;32.55;;;;;;;;;;5138575;27;20476;-68
2022/03/29 06:41:13;;;;;;;48.05;32.53;;;;;;;;;;5144619;27;20037;-67
2022/03/29 06:43:42;;;;;;;50.55;32.63;;;;;;;;;;5121050;27;20026;-68
2022/03/29 06:46:09;;;;;;;51.50;31.05;;;;;;;;;;5123284;27;20296;-69
2022/03/29 06:48:38;;;;;;;50.65;33.03;;;;;;;;;;5126464;27;20053;-67
2022/03/29 06:51:03;;;;;;;47.80;30.38;;;;;;;;;;5142625;27;20023;-68
2022/03/29 06:53:30;;;;;;;46.97;30.80;;;;;;;;;;5140456;27;20030;-67
2022/03/29 06:55:56;;;;;;;51.83;32.17;;;;;;;;;;5122287;27;20047;-67
2022/03/29 06:58:24;;;;;;;50.15;31.33;;;;;;;;;;5140302;27;20022;-67
2022/03/29 07:00:49;;;;;;;48.50;31.15;;;;;;;;;;5123800;27;20027;-68
2022/03/29 07:03:15;;;;;;;42.10;29.33;;;;;;;;;;5141385;27;20026;-67
2022/03/29 07:05:42;;;;;;;44.67;28.58;;;;;;;;;;5142385;27;20106;-67
2022/03/29 07:08:10;;;;;;;48.58;30.75;;;;;;;;;;5139417;27;20022;-68
2022/03/29 07:13:21;;;;;;;47.92;31.05;;;;;;;;;;5125696;27;20065;-68
2022/03/29 07:15:48;;;;;;;48.88;32.10;;;;;;;;;;5127009;27;20023;-68
2022/03/29 07:18:13;;;;;;;50.15;33.28;;;;;;;;;;5126070;27;20026;-67
2022/03/29 07:20:39;;;;;;;49.10;32.33;;;;;;;;;;5147735;27;20342;-68
2022/03/29 07:23:04;;;;;;;50.97;32.33;;;;;;;;;;5108973;27;20030;-68
2022/03/29 07:25:32;;;;;;;49.55;31.88;;;;;;;;;;5146043;27;20025;-68
2022/03/29 07:27:57;;;;;;;49.10;30.80;;;;;;;;;;5143889;27;20467;-68
2022/03/29 07:30:23;;;;;;;49.03;30.65;;;;;;;;;;5128252;27;20239;-67
2022/03/29 07:32:50;;;;;;;45.83;30.17;;;;;;;;;;5125754;27;20046;-68
2022/03/29 07:35:17;;;;;;;45.75;29.77;;;;;;;;;;5126640;27;20083;-69
2022/03/29 07:37:42;;;;;;;49.20;29.60;;;;;;;;;;5128307;27;20026;-69
2022/03/29 07:40:09;;;;;;;48.83;31.52;;;;;;;;;;5103457;27;20383;-68
2022/03/29 07:42:35;;;;;;;42.25;30.05;;;;;;;;;;5125046;27;20409;-68
2022/03/29 07:45:01;;;;;;;51.40;31.38;;;;;;;;;;5125724;27;20019;-68
2022/03/29 07:47:29;;;;;;;47.70;30.60;;;;;;;;;;5124617;27;20106;-68
2022/03/29 07:49:55;;;;;;;43.30;27.33;;;;;;;;;;5123504;27;20039;-67
2022/03/29 07:52:21;;;;;;;49.08;31.00;;;;;;;;;;5125902;27;20033;-67
2022/03/29 07:54:46;;;;;;;46.60;29.88;;;;;;;;;;5125454;27;20092;-68
2022/03/29 07:57:12;;;;;;;47.55;30.98;;;;;;;;;;5124055;27;20023;-67
2022/03/29 07:59:38;;;;;;;48.42;31.15;;;;;;;;;;5126949;27;20051;-67
2022/03/29 08:02:06;;;;;;;43.10;28.95;;;;;;;;;;5122829;27;20088;-67
2022/03/29 08:04:32;;;;;;;42.97;28.10;;;;;;;;;;5126645;27;20436;-67
2022/03/29 08:06:57;;;;;;;42.13;27.75;;;;;;;;;;5125090;27;20097;-67
2022/03/29 08:09:22;;;;;;;42.50;28.35;;;;;;;;;;5124166;27;20454;-67
2022/03/29 08:11:48;;;;;;;42.33;27.38;;;;;;;;;;5126574;27;20460;-68
2022/03/29 08:14:14;;;;;;;39.50;26.27;;;;;;;;;;5105975;27;20027;-67
2022/03/29 08:16:41;;;;;;;41.85;26.48;;;;;;;;;;5125063;27;20023;-67
2022/03/29 08:19:07;;;;;;;40.95;26.67;;;;;;;;;;5123380;27;20027;-68
2022/03/29 08:21:50;;;;;;;38.97;26.17;;;;;;;;;;5127709;27;20408;-68
2022/03/29 08:24:17;;;;;;;37.70;24.98;;;;;;;;;;5120551;27;20241;-68
2022/03/29 08:26:42;;;;;;;37.22;26.02;;;;;;;;;;5101555;28;20513;-68
2022/03/29 08:29:08;;;;;;;41.95;26.35;;;;;;;;;;5101621;28;20115;-68
2022/03/29 08:31:34;;;;;;;38.22;25.70;;;;;;;;;;5105532;27;20039;-68
2022/03/29 08:33:59;;;;;;;41.55;25.65;;;;;;;;;;5097431;28;20012;-68
2022/03/29 08:36:24;;;;;;;40.90;26.13;;;;;;;;;;5104067;28;20015;-68
2022/03/29 08:38:50;;;;;;;39.80;27.27;;;;;;;;;;5101855;27;20613;-67
2022/03/29 08:41:16;;;;;;;40.42;26.00;;;;;;;;;;5103858;27;20559;-67
2022/03/29 08:43:42;;;;;;;42.00;26.83;;;;;;;;;;5124159;27;20023;-68
2022/03/29 08:46:08;;;;;;;36.75;24.80;;;;;;;;;;5123988;27;20038;-68
2022/03/29 08:48:33;;;;;;;41.75;26.60;;;;;;;;;;5121396;27;20027;-68
2022/03/29 08:50:59;;;;;;;38.00;25.48;;;;;;;;;;5124454;27;20542;-70
2022/03/29 08:53:28;;;;;;;38.90;26.27;;;;;;;;;;5103770;27;20022;-69
2022/03/29 08:55:54;;;;;;;40.38;25.70;;;;;;;;;;5105137;27;20015;-69
2022/03/29 08:58:21;;;;;;;38.80;26.35;;;;;;;;;;5085843;27;20362;-69
2022/03/29 09:00:49;;;;;;;37.05;25.58;;;;;;;;;;5105140;27;20054;-69
2022/03/29 09:03:15;;;;;;;37.22;24.83;;;;;;;;;;5116432;27;20015;-68
2022/03/29 09:05:40;;;;;;;37.28;26.85;;;;;;;;;;5105146;27;20224;-68
2022/03/29 09:08:08;;;;;;;36.25;24.98;;;;;;;;;;5121860;27;20060;-69
2022/03/29 09:10:44;;;;;;;36.05;25.75;;;;;;;;;;5121231;27;20030;-68
2022/03/29 09:13:29;;;;;;;37.60;25.60;;;;;;;;;;5100264;27;20426;-68
2022/03/29 09:15:56;;;;;;;36.95;25.73;;;;;;;;;;5123059;27;20202;-68
2022/03/29 09:18:22;;;;;;;37.90;26.45;;;;;;;;;;5100299;27;20098;-68
2022/03/29 09:21:05;;;;;;;35.92;24.00;;;;;;;;;;5124160;27;20019;-69
2022/03/29 09:23:30;;;;;;;34.47;24.40;;;;;;;;;;5118189;27;20107;-69
2022/03/29 09:25:55;;;;;;;37.22;25.92;;;;;;;;;;5123584;27;20498;-69
2022/03/29 09:28:21;;;;;;;39.33;26.30;;;;;;;;;;5101045;27;20609;-68
2022/03/29 09:30:50;;;;;;;36.97;25.90;;;;;;;;;;5105314;27;20050;-68
2022/03/29 09:33:18;;;;;;;34.70;25.85;;;;;;;;;;5101339;27;20449;-69
2022/03/29 09:35:56;;;;;;;41.13;26.13;;;;;;;;;;5105273;27;20030;-70
2022/03/29 09:38:33;;;;;;;39.70;26.20;;;;;;;;;;5099112;27;20578;-69
2022/03/29 09:41:00;;;;;;;39.30;26.10;;;;;;;;;;5104415;27;20328;-68
2022/03/29 09:43:27;;;;;;;39.50;27.33;;;;;;;;;;5099606;27;20102;-68
2022/03/29 09:45:58;;;;;;;40.88;27.80;;;;;;;;;;5105304;27;20117;-68
2022/03/29 09:48:25;;;;;;;39.15;25.52;;;;;;;;;;5097992;27;20318;-71
2022/03/29 09:51:14;;;;;;;38.88;25.52;;;;;;;;;;5124197;27;20083;-71
2022/03/29 09:53:43;;;;;;;36.53;23.45;;;;;;;;;;5107276;27;20027;-71
2022/03/29 09:56:10;;;;;;;34.53;24.73;;;;;;;;;;5121921;27;20038;-70
2022/03/29 09:58:36;;;;;;;33.90;24.52;;;;;;;;;;5101052;27;20106;-70
2022/03/29 10:01:02;;;;;;;37.47;24.42;;;;;;;;;;5123441;27;20517;-70
2022/03/29 10:03:28;;;;;;;34.30;25.20;;;;;;;;;;5089388;27;20031;-70
2022/03/29 10:05:58;;;;;;;35.92;23.80;;;;;;;;;;5145049;27;20029;-70
2022/03/29 10:11:15;;;;;;;35.30;24.33;;;;;;;;;;5141779;27;20395;-70
2022/03/29 10:13:41;;;;;;;35.97;23.90;;;;;;;;;;5139383;27;20052;-68
2022/03/29 10:16:10;;;;;;;33.92;24.40;;;;;;;;;;5141712;27;20111;-70
2022/03/29 10:18:35;;;;;;;37.08;24.10;;;;;;;;;;5120985;27;20027;-71
2022/03/29 10:21:01;;;;;;;33.38;23.38;;;;;;;;;;5141954;27;20394;-69
2022/03/29 10:23:29;;;;;;;34.67;24.27;;;;;;;;;;5106273;27;20083;-79
2022/03/29 10:25:55;;;;;;;29.65;23.77;;;;;;;;;;5103297;27;20022;-70
2022/03/29 10:28:24;;;;;;;31.50;23.88;;;;;;;;;;5118654;27;20050;-69
2022/03/29 10:30:49;;;;;;;33.72;24.58;;;;;;;;;;5121814;27;20195;-69
2022/03/29 10:33:25;;;;;;;34.47;24.65;;;;;;;;;;5119053;27;20140;-69
2022/03/29 10:36:06;;;;;;;32.13;23.55;;;;;;;;;;5104066;27;20359;-70
2022/03/29 10:38:47;;;;;;;33.10;24.52;;;;;;;;;;5100650;27;20027;-70
2022/03/29 10:41:31;;;;;;;32.35;23.63;;;;;;;;;;5120263;27;20115;-69
2022/03/29 10:44:11;;;;;;;31.58;22.90;;;;;;;;;;5118742;27;20577;-70
2022/03/29 10:46:37;;;;;;;32.08;24.55;;;;;;;;;;5123482;27;20026;-69
2022/03/29 10:49:25;;;;;;;31.92;23.13;;;;;;;;;;5101042;27;20023;-70
2022/03/29 10:51:52;;;;;;;30.50;22.73;;;;;;;;;;5120212;27;20034;-70
2022/03/29 10:54:29;;;;;;;32.80;23.73;;;;;;;;;;5099145;27;20485;-69
2022/03/29 10:57:02;;;;;;;30.67;23.17;;;;;;;;;;5121294;27;20075;-69
2022/03/29 10:59:28;;;;;;;30.83;23.67;;;;;;;;;;5100039;27;20243;-69
2022/03/29 11:02:08;;;;;;;32.90;24.35;;;;;;;;;;5117827;27;20034;-69
2022/03/29 11:04:33;;;;;;;29.35;23.67;;;;;;;;;;5102959;27;20035;-70
2022/03/29 11:07:08;;;;;;;28.90;22.90;;;;;;;;;;5119338;27;20034;-69
2022/03/29 11:09:35;;;;;;;33.78;23.58;;;;;;;;;;5101209;27;20019;-69
2022/03/29 11:12:00;;;;;;;29.98;22.88;;;;;;;;;;5104326;27;20043;-69
2022/03/29 11:14:35;;;;;;;29.98;22.55;;;;;;;;;;5142189;27;20026;-70
2022/03/29 11:17:01;;;;;;;28.55;22.42;;;;;;;;;;5123711;27;20045;-69
2022/03/29 11:19:46;;;;;;;33.03;23.90;;;;;;;;;;5124689;27;20027;-69
2022/03/29 11:22:24;;;;;;;30.40;24.33;;;;;;;;;;5142516;27;20018;-68
2022/03/29 11:24:49;;;;;;;32.30;24.33;;;;;;;;;;5142390;27;20023;-70
2022/03/29 11:27:26;;;;;;;33.53;24.20;;;;;;;;;;5121388;27;20830;-70
2022/03/29 11:29:51;;;;;;;33.10;23.77;;;;;;;;;;5144074;27;20110;-69
2022/03/29 11:32:17;;;;;;;31.67;24.60;;;;;;;;;;5141107;27;20071;-69
2022/03/29 11:34:42;;;;;;;34.60;25.42;;;;;;;;;;5144962;27;20029;-69
2022/03/29 11:37:08;;;;;;;34.03;24.27;;;;;;;;;;5144708;27;20018;-70
2022/03/29 11:39:33;;;;;;;31.00;23.88;;;;;;;;;;5106185;27;20203;-70
2022/03/29 11:41:58;;;;;;;31.23;22.83;;;;;;;;;;5141410;27;20773;-70
2022/03/29 11:44:24;;;;;;;27.58;22.00;;;;;;;;;;5142022;27;20026;-69
2022/03/29 11:46:53;;;;;;;31.48;22.92;;;;;;;;;;5121632;27;20484;-70
2022/03/29 11:49:19;;;;;;;25.80;21.13;;;;;;;;;;5142397;27;20027;-69
2022/03/29 11:52:05;;;;;;;30.92;22.52;;;;;;;;;;5122325;27;20163;-69
2022/03/29 11:54:30;;;;;;;32.90;23.40;;;;;;;;;;5120748;27;20414;-68
2022/03/29 11:56:56;;;;;;;28.77;21.17;;;;;;;;;;5107811;27;20079;-69
2022/03/29 11:59:22;;;;;;;29.20;21.38;;;;;;;;;;5114515;27;20106;-69
2022/03/29 12:01:47;;;;;;;28.52;22.48;;;;;;;;;;5141506;27;20110;-68
2022/03/29 12:04:13;;;;;;;35.85;22.75;;;;;;;;;;5127160;27;20065;-69
2022/03/29 12:06:46;;;;;;;34.15;23.38;;;;;;;;;;5108635;27;20063;-70
2022/03/29 12:09:16;;;;;;;34.65;23.23;;;;;;;;;;5118708;27;20019;-69
2022/03/29 12:11:44;;;;;;;28.45;21.77;;;;;;;;;;5089610;27;20027;-69
2022/03/29 12:14:10;;;;;;;28.27;21.83;;;;;;;;;;5104620;27;20015;-70
2022/03/29 12:16:37;;;;;;;27.75;22.45;;;;;;;;;;5126250;27;20020;-70
2022/03/29 12:19:11;;;;;;;29.65;23.55;;;;;;;;;;5109398;27;20516;-70
2022/03/29 12:21:38;;;;;;;29.05;23.02;;;;;;;;;;5123215;27;20047;-70
2022/03/29 12:24:06;;;;;;;30.90;23.67;;;;;;;;;;5103101;27;20194;-70
2022/03/29 12:26:32;;;;;;;32.40;22.25;;;;;;;;;;5105553;27;20030;-70
2022/03/29 12:28:58;;;;;;;30.30;23.33;;;;;;;;;;5142266;27;20410;-69
2022/03/29 12:31:26;;;;;;;29.15;22.33;;;;;;;;;;5125390;27;20102;-70
2022/03/29 12:33:52;;;;;;;26.02;21.23;;;;;;;;;;5101553;27;20087;-69
2022/03/29 12:36:19;;;;;;;31.02;22.13;;;;;;;;;;5106184;27;20031;-69
2022/03/29 12:38:46;;;;;;;29.20;23.00;;;;;;;;;;5102397;27;20023;-71
2022/03/29 12:41:13;;;;;;;29.10;22.48;;;;;;;;;;5123187;27;20408;-68
2022/03/29 12:43:38;;;;;;;28.30;22.23;;;;;;;;;;5120410;27;20714;-69
2022/03/29 12:46:09;;;;;;;26.70;23.02;;;;;;;;;;5107952;27;20035;-70
2022/03/29 12:48:35;;;;;;;26.48;21.90;;;;;;;;;;5100328;27;20031;-69
2022/03/29 12:51:04;;;;;;;26.58;22.70;;;;;;;;;;5106871;27;20385;-70
2022/03/29 12:53:30;;;;;;;27.10;22.40;;;;;;;;;;5103614;27;20019;-69
2022/03/29 12:55:57;;;;;;;27.20;21.27;;;;;;;;;;5106669;27;20168;-69
2022/03/29 12:58:34;;;;;;;30.17;22.17;;;;;;;;;;5085073;27;20023;-70
2022/03/29 13:01:01;;;;;;;27.38;21.20;;;;;;;;;;5123881;27;20051;-68
2022/03/29 13:03:26;;;;;;;25.52;21.17;;;;;;;;;;5121331;27;20481;-69
2022/03/29 13:05:51;;;;;;;25.60;21.08;;;;;;;;;;5106581;27;20079;-69
2022/03/29 13:08:23;;;;;;;26.80;21.08;;;;;;;;;;5125263;27;20114;-69
2022/03/29 13:10:50;;;;;;;28.03;21.70;;;;;;;;;;5103930;27;20400;-69
2022/03/29 13:13:21;;;;;;;24.10;20.42;;;;;;;;;;5122998;27;20252;-69
2022/03/29 13:15:48;;;;;;;27.75;21.42;;;;;;;;;;5104306;27;20011;-69
2022/03/29 13:18:34;;;;;;;26.73;21.70;;;;;;;;;;5122928;27;20060;-69
2022/03/29 13:21:07;;;;;;;25.95;20.63;;;;;;;;;;5125175;27;20007;-69
2022/03/29 13:23:35;;;;;;;29.10;22.15;;;;;;;;;;5100896;27;20038;-68
2022/03/29 13:26:00;;;;;;;28.33;21.92;;;;;;;;;;5125821;27;20101;-69
2022/03/29 13:28:26;;;;;;;25.58;21.50;;;;;;;;;;5121821;27;20037;-69
2022/03/29 13:30:52;;;;;;;26.20;21.55;;;;;;;;;;5124628;27;20023;-69
2022/03/29 13:33:17;;;;;;;25.45;21.65;;;;;;;;;;5104383;27;20446;-69
2022/03/29 13:35:43;;;;;;;26.98;22.73;;;;;;;;;;5105318;27;20059;-69
2022/03/29 13:38:08;;;;;;;27.27;21.67;;;;;;;;;;5124705;27;20493;-69
2022/03/29 13:40:33;;;;;;;27.10;21.95;;;;;;;;;;5122332;27;20043;-68
2022/03/29 13:42:59;;;;;;;24.38;21.13;;;;;;;;;;5122253;27;20376;-68
2022/03/29 13:45:25;;;;;;;25.92;21.25;;;;;;;;;;5105060;27;20104;-68
2022/03/29 13:47:51;;;;;;;24.45;21.30;;;;;;;;;;5102681;27;20118;-69
2022/03/29 13:50:16;;;;;;;24.00;21.17;;;;;;;;;;5104774;27;20226;-69
2022/03/29 13:52:41;;;;;;;23.73;21.20;;;;;;;;;;5119917;27;20373;-69
2022/03/29 13:55:07;;;;;;;24.55;20.92;;;;;;;;;;5122356;27;20030;-69
2022/03/29 13:57:32;;;;;;;26.25;21.52;;;;;;;;;;5083184;27;20360;-69
2022/03/29 13:59:58;;;;;;;24.25;21.13;;;;;;;;;;5086756;27;20027;-68
2022/03/29 14:02:24;;;;;;;23.45;20.92;;;;;;;;;;5139749;27;20468;-69
2022/03/29 14:04:50;;;;;;;27.13;20.40;;;;;;;;;;5123348;27;20018;-69
2022/03/29 14:07:15;;;;;;;24.20;20.85;;;;;;;;;;5106907;27;20029;-68
2022/03/29 14:09:41;;;;;;;24.58;20.80;;;;;;;;;;5122259;27;20030;-69
2022/03/29 14:12:06;;;;;;;25.17;21.02;;;;;;;;;;5141043;27;20025;-68
2022/03/29 14:14:31;;;;;;;22.20;19.25;;;;;;;;;;5123113;27;20019;-68
2022/03/29 14:16:57;;;;;;;27.13;18.42;;;;;;;;;;5140233;27;20553;-68
2022/03/29 14:19:22;;;;;;;23.65;19.98;;;;;;;;;;5149115;27;20501;-67
2022/03/29 14:21:49;;;;;;;31.10;22.73;;;;;;;;;;5107360;27;20190;-68
2022/03/29 14:24:14;;;;;;;29.00;21.00;;;;;;;;;;5107866;27;20030;-69